sensor_id;sensor_type;location;lat;lon;timestamp;P1;P2;P0
62249;PMS5003;48237;50.140;8.486;2022-10-16T00:00:39;5;2;
62249;PMS5003;48237;50.140;8.486;2022-10-16T00:03:08;2;2;
62249;PMS5003;48237;50.140;8.486;2022-10-16T00:05:38;4;3;
62249;PMS5003;48237;50.140;8.486;2022-10-16T00:08:06;2;2;
62249;PMS5003;48237;50.140;8.486;2022-10-16T00:10:33;4;2;
62249;PMS5003;48237;50.140;8.486;2022-10-16T00:13:01;4;3;
62249;PMS5003;48237;50.140;8.486;2022-10-16T00:15:29;5;3;
62249;PMS5003;48237;50.140;8.486;2022-10-16T00:17:56;2;1;
62249;PMS5003;48237;50.140;8.486;2022-10-16T00:20:23;5;3;
62249;PMS5003;48237;50.140;8.486;2022-10-16T00:22:50;3;3;
62249;PMS5003;48237;50.140;8.486;2022-10-16T00:25:17;5;1;
62249;PMS5003;48237;50.140;8.486;2022-10-16T00:27:44;3;3;
62249;PMS5003;48237;50.140;8.486;2022-10-16T00:30:11;3;3;
62249;PMS5003;48237;50.140;8.486;2022-10-16T00:32:38;5;2;
62249;PMS5003;48237;50.140;8.486;2022-10-16T00:35:05;5;2;
62249;PMS5003;48237;50.140;8.486;2022-10-16T00:37:32;4;4;
62249;PMS5003;48237;50.140;8.486;2022-10-16T00:39:59;3;2;
62249;PMS5003;48237;50.140;8.486;2022-10-16T00:42:26;3;3;
62249;PMS5003;48237;50.140;8.486;2022-10-16T00:44:55;2;2;
62249;PMS5003;48237;50.140;8.486;2022-10-16T00:47:24;7;2;
62249;PMS5003;48237;50.140;8.486;2022-10-16T00:49:57;4;4;
62249;PMS5003;48237;50.140;8.486;2022-10-16T00:52:29;2;2;
62249;PMS5003;48237;50.140;8.486;2022-10-16T00:54:56;4;3;
62249;PMS5003;48237;50.140;8.486;2022-10-16T00:57:25;2;2;
62249;PMS5003;48237;50.140;8.486;2022-10-16T00:59:52;3;3;
62249;PMS5003;48237;50.140;8.486;2022-10-16T01:02:20;3;2;
62249;PMS5003;48237;50.140;8.486;2022-10-16T01:04:48;5;5;
62249;PMS5003;48237;50.140;8.486;2022-10-16T01:07:20;2;2;
62249;PMS5003;48237;50.140;8.486;2022-10-16T01:10:02;3;3;
62249;PMS5003;48237;50.140;8.486;2022-10-16T01:12:39;2;2;
62249;PMS5003;48237;50.140;8.486;2022-10-16T01:15:11;2;2;
62249;PMS5003;48237;50.140;8.486;2022-10-16T01:17:45;5;2;
62249;PMS5003;48237;50.140;8.486;2022-10-16T01:20:21;5;5;
62249;PMS5003;48237;50.140;8.486;2022-10-16T01:23:03;6;5;
62249;PMS5003;48237;50.140;8.486;2022-10-16T01:25:43;7;7;
62249;PMS5003;48237;50.140;8.486;2022-10-16T01:28:24;9;7;
62249;PMS5003;48237;50.140;8.486;2022-10-16T01:30:59;5;5;
62249;PMS5003;48237;50.140;8.486;2022-10-16T01:33:29;6;5;
62249;PMS5003;48237;50.140;8.486;2022-10-16T01:36:01;3;3;
62249;PMS5003;48237;50.140;8.486;2022-10-16T01:38:34;4;3;
62249;PMS5003;48237;50.140;8.486;2022-10-16T01:41:04;6;4;
62249;PMS5003;48237;50.140;8.486;2022-10-16T01:43:36;8;4;
62249;PMS5003;48237;50.140;8.486;2022-10-16T01:46:07;5;5;
62249;PMS5003;48237;50.140;8.486;2022-10-16T01:48:36;6;4;
62249;PMS5003;48237;50.140;8.486;2022-10-16T01:51:05;6;5;
62249;PMS5003;48237;50.140;8.486;2022-10-16T01:53:35;6;4;
62249;PMS5003;48237;50.140;8.486;2022-10-16T01:56:04;4;4;
62249;PMS5003;48237;50.140;8.486;2022-10-16T01:58:35;3;3;
62249;PMS5003;48237;50.140;8.486;2022-10-16T02:01:06;5;5;
62249;PMS5003;48237;50.140;8.486;2022-10-16T02:03:37;6;4;
62249;PMS5003;48237;50.140;8.486;2022-10-16T02:06:07;5;5;
62249;PMS5003;48237;50.140;8.486;2022-10-16T02:08:35;4;4;
62249;PMS5003;48237;50.140;8.486;2022-10-16T02:11:03;7;5;
62249;PMS5003;48237;50.140;8.486;2022-10-16T02:13:31;8;6;
62249;PMS5003;48237;50.140;8.486;2022-10-16T02:16:03;6;6;
62249;PMS5003;48237;50.140;8.486;2022-10-16T02:18:31;10;10;
62249;PMS5003;48237;50.140;8.486;2022-10-16T02:20:59;5;5;
62249;PMS5003;48237;50.140;8.486;2022-10-16T02:23:31;5;3;
62249;PMS5003;48237;50.140;8.486;2022-10-16T02:26:05;3;2;
62249;PMS5003;48237;50.140;8.486;2022-10-16T02:28:37;7;3;
62249;PMS5003;48237;50.140;8.486;2022-10-16T02:31:10;4;4;
62249;PMS5003;48237;50.140;8.486;2022-10-16T02:33:40;5;5;
62249;PMS5003;48237;50.140;8.486;2022-10-16T02:36:10;5;5;
62249;PMS5003;48237;50.140;8.486;2022-10-16T02:38:38;8;7;
62249;PMS5003;48237;50.140;8.486;2022-10-16T02:41:07;10;6;
62249;PMS5003;48237;50.140;8.486;2022-10-16T02:43:34;11;7;
62249;PMS5003;48237;50.140;8.486;2022-10-16T02:46:01;9;8;
62249;PMS5003;48237;50.140;8.486;2022-10-16T02:48:28;10;5;
62249;PMS5003;48237;50.140;8.486;2022-10-16T02:50:55;10;10;
62249;PMS5003;48237;50.140;8.486;2022-10-16T02:53:22;9;8;
62249;PMS5003;48237;50.140;8.486;2022-10-16T02:55:49;7;7;
62249;PMS5003;48237;50.140;8.486;2022-10-16T02:58:16;7;7;
62249;PMS5003;48237;50.140;8.486;2022-10-16T03:00:43;9;8;
62249;PMS5003;48237;50.140;8.486;2022-10-16T03:03:10;10;10;
62249;PMS5003;48237;50.140;8.486;2022-10-16T03:05:38;10;8;
62249;PMS5003;48237;50.140;8.486;2022-10-16T03:08:05;9;7;
62249;PMS5003;48237;50.140;8.486;2022-10-16T03:10:32;9;9;
62249;PMS5003;48237;50.140;8.486;2022-10-16T03:12:59;13;9;
62249;PMS5003;48237;50.140;8.486;2022-10-16T03:15:26;9;9;
62249;PMS5003;48237;50.140;8.486;2022-10-16T03:17:53;9;6;
62249;PMS5003;48237;50.140;8.486;2022-10-16T03:20:20;11;7;
62249;PMS5003;48237;50.140;8.486;2022-10-16T03:22:47;11;9;
62249;PMS5003;48237;50.140;8.486;2022-10-16T03:25:14;9;7;
62249;PMS5003;48237;50.140;8.486;2022-10-16T03:27:41;8;8;
62249;PMS5003;48237;50.140;8.486;2022-10-16T03:30:08;12;10;
62249;PMS5003;48237;50.140;8.486;2022-10-16T03:32:36;7;7;
62249;PMS5003;48237;50.140;8.486;2022-10-16T03:35:04;8;8;
62249;PMS5003;48237;50.140;8.486;2022-10-16T03:37:31;9;7;
62249;PMS5003;48237;50.140;8.486;2022-10-16T03:39:58;10;9;
62249;PMS5003;48237;50.140;8.486;2022-10-16T03:42:26;10;9;
62249;PMS5003;48237;50.140;8.486;2022-10-16T03:44:53;11;10;
62249;PMS5003;48237;50.140;8.486;2022-10-16T03:47:19;11;8;
62249;PMS5003;48237;50.140;8.486;2022-10-16T03:49:46;11;11;
62249;PMS5003;48237;50.140;8.486;2022-10-16T03:52:13;10;9;
62249;PMS5003;48237;50.140;8.486;2022-10-16T03:54:40;14;12;
62249;PMS5003;48237;50.140;8.486;2022-10-16T03:57:07;11;10;
62249;PMS5003;48237;50.140;8.486;2022-10-16T03:59:34;11;9;
62249;PMS5003;48237;50.140;8.486;2022-10-16T04:02:02;13;12;
62249;PMS5003;48237;50.140;8.486;2022-10-16T04:04:29;13;10;
62249;PMS5003;48237;50.140;8.486;2022-10-16T04:06:56;12;10;
62249;PMS5003;48237;50.140;8.486;2022-10-16T04:09:24;11;11;
62249;PMS5003;48237;50.140;8.486;2022-10-16T04:11:51;10;8;
62249;PMS5003;48237;50.140;8.486;2022-10-16T04:14:18;15;11;
62249;PMS5003;48237;50.140;8.486;2022-10-16T04:16:45;13;12;
62249;PMS5003;48237;50.140;8.486;2022-10-16T04:19:13;12;9;
62249;PMS5003;48237;50.140;8.486;2022-10-16T04:21:40;17;14;
62249;PMS5003;48237;50.140;8.486;2022-10-16T04:24:07;10;8;
62249;PMS5003;48237;50.140;8.486;2022-10-16T04:26:34;10;9;
62249;PMS5003;48237;50.140;8.486;2022-10-16T04:29:01;10;9;
62249;PMS5003;48237;50.140;8.486;2022-10-16T04:31:28;12;9;
62249;PMS5003;48237;50.140;8.486;2022-10-16T04:33:56;12;10;
62249;PMS5003;48237;50.140;8.486;2022-10-16T04:36:23;18;9;
62249;PMS5003;48237;50.140;8.486;2022-10-16T04:38:50;12;9;
62249;PMS5003;48237;50.140;8.486;2022-10-16T04:41:18;13;10;
62249;PMS5003;48237;50.140;8.486;2022-10-16T04:43:45;12;10;
62249;PMS5003;48237;50.140;8.486;2022-10-16T04:46:12;9;8;
62249;PMS5003;48237;50.140;8.486;2022-10-16T04:48:39;12;9;
62249;PMS5003;48237;50.140;8.486;2022-10-16T04:51:06;15;8;
62249;PMS5003;48237;50.140;8.486;2022-10-16T04:53:33;11;8;
62249;PMS5003;48237;50.140;8.486;2022-10-16T04:56:00;12;10;
62249;PMS5003;48237;50.140;8.486;2022-10-16T04:58:27;15;9;
62249;PMS5003;48237;50.140;8.486;2022-10-16T05:00:54;8;8;
62249;PMS5003;48237;50.140;8.486;2022-10-16T05:03:20;10;9;
62249;PMS5003;48237;50.140;8.486;2022-10-16T05:05:51;15;10;
62249;PMS5003;48237;50.140;8.486;2022-10-16T05:08:29;11;9;
62249;PMS5003;48237;50.140;8.486;2022-10-16T05:11:02;15;12;
62249;PMS5003;48237;50.140;8.486;2022-10-16T05:13:41;11;11;
62249;PMS5003;48237;50.140;8.486;2022-10-16T05:16:21;12;11;
62249;PMS5003;48237;50.140;8.486;2022-10-16T05:18:51;9;8;
62249;PMS5003;48237;50.140;8.486;2022-10-16T05:21:19;12;10;
62249;PMS5003;48237;50.140;8.486;2022-10-16T05:23:50;9;9;
62249;PMS5003;48237;50.140;8.486;2022-10-16T05:26:28;9;7;
62249;PMS5003;48237;50.140;8.486;2022-10-16T05:28:56;11;9;
62249;PMS5003;48237;50.140;8.486;2022-10-16T05:31:30;9;9;
62249;PMS5003;48237;50.140;8.486;2022-10-16T05:34:02;9;9;
62249;PMS5003;48237;50.140;8.486;2022-10-16T05:36:37;11;10;
62249;PMS5003;48237;50.140;8.486;2022-10-16T05:39:19;11;9;
62249;PMS5003;48237;50.140;8.486;2022-10-16T05:41:55;10;10;
62249;PMS5003;48237;50.140;8.486;2022-10-16T05:44:24;17;12;
62249;PMS5003;48237;50.140;8.486;2022-10-16T05:46:51;10;8;
62249;PMS5003;48237;50.140;8.486;2022-10-16T05:49:19;12;11;
62249;PMS5003;48237;50.140;8.486;2022-10-16T05:51:46;12;11;
62249;PMS5003;48237;50.140;8.486;2022-10-16T05:54:12;15;11;
62249;PMS5003;48237;50.140;8.486;2022-10-16T05:56:39;12;8;
62249;PMS5003;48237;50.140;8.486;2022-10-16T05:59:06;13;13;
62249;PMS5003;48237;50.140;8.486;2022-10-16T06:01:34;14;11;
62249;PMS5003;48237;50.140;8.486;2022-10-16T06:04:01;9;9;
62249;PMS5003;48237;50.140;8.486;2022-10-16T06:06:28;13;10;
62249;PMS5003;48237;50.140;8.486;2022-10-16T06:08:56;12;10;
62249;PMS5003;48237;50.140;8.486;2022-10-16T06:11:25;11;10;
62249;PMS5003;48237;50.140;8.486;2022-10-16T06:13:55;10;10;
62249;PMS5003;48237;50.140;8.486;2022-10-16T06:16:23;13;11;
62249;PMS5003;48237;50.140;8.486;2022-10-16T06:18:51;12;10;
62249;PMS5003;48237;50.140;8.486;2022-10-16T06:21:20;14;11;
62249;PMS5003;48237;50.140;8.486;2022-10-16T06:23:49;16;10;
62249;PMS5003;48237;50.140;8.486;2022-10-16T06:26:17;10;10;
62249;PMS5003;48237;50.140;8.486;2022-10-16T06:28:46;12;12;
62249;PMS5003;48237;50.140;8.486;2022-10-16T06:31:14;9;8;
62249;PMS5003;48237;50.140;8.486;2022-10-16T06:33:41;9;9;
62249;PMS5003;48237;50.140;8.486;2022-10-16T06:36:09;8;8;
62249;PMS5003;48237;50.140;8.486;2022-10-16T06:38:37;9;9;
62249;PMS5003;48237;50.140;8.486;2022-10-16T06:41:05;13;11;
62249;PMS5003;48237;50.140;8.486;2022-10-16T06:43:34;12;12;
62249;PMS5003;48237;50.140;8.486;2022-10-16T06:46:01;11;10;
62249;PMS5003;48237;50.140;8.486;2022-10-16T06:48:31;10;9;
62249;PMS5003;48237;50.140;8.486;2022-10-16T06:50:58;16;12;
62249;PMS5003;48237;50.140;8.486;2022-10-16T06:53:28;11;11;
62249;PMS5003;48237;50.140;8.486;2022-10-16T06:55:56;12;10;
62249;PMS5003;48237;50.140;8.486;2022-10-16T06:58:23;10;10;
62249;PMS5003;48237;50.140;8.486;2022-10-16T07:00:54;11;10;
62249;PMS5003;48237;50.140;8.486;2022-10-16T07:03:22;11;11;
62249;PMS5003;48237;50.140;8.486;2022-10-16T07:05:50;11;10;
62249;PMS5003;48237;50.140;8.486;2022-10-16T07:08:17;11;7;
62249;PMS5003;48237;50.140;8.486;2022-10-16T07:10:43;12;9;
62249;PMS5003;48237;50.140;8.486;2022-10-16T07:13:10;11;9;
62249;PMS5003;48237;50.140;8.486;2022-10-16T07:15:37;13;9;
62249;PMS5003;48237;50.140;8.486;2022-10-16T07:18:04;11;8;
62249;PMS5003;48237;50.140;8.486;2022-10-16T07:20:31;10;7;
62249;PMS5003;48237;50.140;8.486;2022-10-16T07:22:59;9;9;
62249;PMS5003;48237;50.140;8.486;2022-10-16T07:25:26;8;8;
62249;PMS5003;48237;50.140;8.486;2022-10-16T07:27:52;12;9;
62249;PMS5003;48237;50.140;8.486;2022-10-16T07:30:19;12;9;
62249;PMS5003;48237;50.140;8.486;2022-10-16T07:32:46;9;8;
62249;PMS5003;48237;50.140;8.486;2022-10-16T07:35:13;9;7;
62249;PMS5003;48237;50.140;8.486;2022-10-16T07:37:43;11;7;
62249;PMS5003;48237;50.140;8.486;2022-10-16T07:40:11;9;7;
62249;PMS5003;48237;50.140;8.486;2022-10-16T07:42:39;11;8;
62249;PMS5003;48237;50.140;8.486;2022-10-16T07:45:07;9;7;
62249;PMS5003;48237;50.140;8.486;2022-10-16T07:47:34;10;7;
62249;PMS5003;48237;50.140;8.486;2022-10-16T07:50:01;10;6;
62249;PMS5003;48237;50.140;8.486;2022-10-16T07:52:29;8;7;
62249;PMS5003;48237;50.140;8.486;2022-10-16T07:54:56;7;5;
62249;PMS5003;48237;50.140;8.486;2022-10-16T07:57:23;6;6;
62249;PMS5003;48237;50.140;8.486;2022-10-16T07:59:50;9;6;
62249;PMS5003;48237;50.140;8.486;2022-10-16T08:02:17;6;6;
62249;PMS5003;48237;50.140;8.486;2022-10-16T08:04:46;6;6;
62249;PMS5003;48237;50.140;8.486;2022-10-16T08:07:13;8;6;
62249;PMS5003;48237;50.140;8.486;2022-10-16T08:09:40;9;8;
62249;PMS5003;48237;50.140;8.486;2022-10-16T08:12:07;9;9;
62249;PMS5003;48237;50.140;8.486;2022-10-16T08:14:35;8;8;
62249;PMS5003;48237;50.140;8.486;2022-10-16T08:17:02;6;6;
62249;PMS5003;48237;50.140;8.486;2022-10-16T08:19:29;12;9;
62249;PMS5003;48237;50.140;8.486;2022-10-16T08:21:56;8;7;
62249;PMS5003;48237;50.140;8.486;2022-10-16T08:24:23;7;6;
62249;PMS5003;48237;50.140;8.486;2022-10-16T08:26:50;10;7;
62249;PMS5003;48237;50.140;8.486;2022-10-16T08:29:20;10;9;
62249;PMS5003;48237;50.140;8.486;2022-10-16T08:31:47;8;8;
62249;PMS5003;48237;50.140;8.486;2022-10-16T08:34:13;9;7;
62249;PMS5003;48237;50.140;8.486;2022-10-16T08:36:40;8;7;
62249;PMS5003;48237;50.140;8.486;2022-10-16T08:39:07;7;6;
62249;PMS5003;48237;50.140;8.486;2022-10-16T08:41:54;7;7;
62249;PMS5003;48237;50.140;8.486;2022-10-16T08:44:34;6;6;
62249;PMS5003;48237;50.140;8.486;2022-10-16T08:47:17;8;6;
62249;PMS5003;48237;50.140;8.486;2022-10-16T08:49:52;11;9;
62249;PMS5003;48237;50.140;8.486;2022-10-16T08:52:25;7;5;
62249;PMS5003;48237;50.140;8.486;2022-10-16T08:54:57;7;6;
62249;PMS5003;48237;50.140;8.486;2022-10-16T08:57:24;6;5;
62249;PMS5003;48237;50.140;8.486;2022-10-16T08:59:52;4;4;
62249;PMS5003;48237;50.140;8.486;2022-10-16T09:02:23;7;4;
62249;PMS5003;48237;50.140;8.486;2022-10-16T09:04:59;5;5;
62249;PMS5003;48237;50.140;8.486;2022-10-16T09:07:45;6;6;
62249;PMS5003;48237;50.140;8.486;2022-10-16T09:10:24;5;5;
62249;PMS5003;48237;50.140;8.486;2022-10-16T09:13:02;6;5;
62249;PMS5003;48237;50.140;8.486;2022-10-16T09:15:40;6;4;
62249;PMS5003;48237;50.140;8.486;2022-10-16T09:18:19;4;4;
62249;PMS5003;48237;50.140;8.486;2022-10-16T09:20:55;5;5;
62249;PMS5003;48237;50.140;8.486;2022-10-16T09:23:30;5;5;
62249;PMS5003;48237;50.140;8.486;2022-10-16T09:26:01;5;4;
62249;PMS5003;48237;50.140;8.486;2022-10-16T09:28:30;8;5;
62249;PMS5003;48237;50.140;8.486;2022-10-16T09:30:57;6;6;
62249;PMS5003;48237;50.140;8.486;2022-10-16T09:33:25;5;5;
62249;PMS5003;48237;50.140;8.486;2022-10-16T09:35:57;5;5;
62249;PMS5003;48237;50.140;8.486;2022-10-16T09:38:25;6;6;
62249;PMS5003;48237;50.140;8.486;2022-10-16T09:40:54;8;7;
62249;PMS5003;48237;50.140;8.486;2022-10-16T09:43:24;6;6;
62249;PMS5003;48237;50.140;8.486;2022-10-16T09:45:54;8;7;
62249;PMS5003;48237;50.140;8.486;2022-10-16T09:48:23;8;8;
62249;PMS5003;48237;50.140;8.486;2022-10-16T09:50:56;9;7;
62249;PMS5003;48237;50.140;8.486;2022-10-16T09:53:25;8;8;
62249;PMS5003;48237;50.140;8.486;2022-10-16T09:56:05;10;10;
62249;PMS5003;48237;50.140;8.486;2022-10-16T09:58:32;10;7;
62249;PMS5003;48237;50.140;8.486;2022-10-16T10:01:00;8;6;
62249;PMS5003;48237;50.140;8.486;2022-10-16T10:03:32;9;9;
62249;PMS5003;48237;50.140;8.486;2022-10-16T10:06:05;8;8;
62249;PMS5003;48237;50.140;8.486;2022-10-16T10:08:52;8;7;
62249;PMS5003;48237;50.140;8.486;2022-10-16T10:11:35;8;8;
62249;PMS5003;48237;50.140;8.486;2022-10-16T10:14:05;8;8;
62249;PMS5003;48237;50.140;8.486;2022-10-16T10:16:37;6;6;
62249;PMS5003;48237;50.140;8.486;2022-10-16T10:19:04;6;5;
62249;PMS5003;48237;50.140;8.486;2022-10-16T10:21:39;7;6;
62249;PMS5003;48237;50.140;8.486;2022-10-16T10:24:09;8;8;
62249;PMS5003;48237;50.140;8.486;2022-10-16T10:26:37;9;8;
62249;PMS5003;48237;50.140;8.486;2022-10-16T10:29:10;10;10;
62249;PMS5003;48237;50.140;8.486;2022-10-16T10:31:44;11;9;
62249;PMS5003;48237;50.140;8.486;2022-10-16T10:34:20;8;8;
62249;PMS5003;48237;50.140;8.486;2022-10-16T10:36:58;10;8;
62249;PMS5003;48237;50.140;8.486;2022-10-16T10:39:35;8;6;
62249;PMS5003;48237;50.140;8.486;2022-10-16T10:42:12;12;9;
62249;PMS5003;48237;50.140;8.486;2022-10-16T10:44:53;6;6;
62249;PMS5003;48237;50.140;8.486;2022-10-16T10:47:31;6;5;
62249;PMS5003;48237;50.140;8.486;2022-10-16T10:50:11;9;6;
62249;PMS5003;48237;50.140;8.486;2022-10-16T10:52:50;9;6;
62249;PMS5003;48237;50.140;8.486;2022-10-16T10:55:26;6;6;
62249;PMS5003;48237;50.140;8.486;2022-10-16T10:58:12;6;5;
62249;PMS5003;48237;50.140;8.486;2022-10-16T11:00:53;7;7;
62249;PMS5003;48237;50.140;8.486;2022-10-16T11:03:32;8;6;
62249;PMS5003;48237;50.140;8.486;2022-10-16T11:06:11;10;5;
62249;PMS5003;48237;50.140;8.486;2022-10-16T11:08:42;7;6;
62249;PMS5003;48237;50.140;8.486;2022-10-16T11:11:15;7;6;
62249;PMS5003;48237;50.140;8.486;2022-10-16T11:13:49;4;4;
62249;PMS5003;48237;50.140;8.486;2022-10-16T11:16:24;6;6;
62249;PMS5003;48237;50.140;8.486;2022-10-16T11:18:56;7;6;
62249;PMS5003;48237;50.140;8.486;2022-10-16T11:21:30;4;4;
62249;PMS5003;48237;50.140;8.486;2022-10-16T11:24:04;8;5;
62249;PMS5003;48237;50.140;8.486;2022-10-16T11:26:39;7;4;
62249;PMS5003;48237;50.140;8.486;2022-10-16T11:29:12;8;7;
62249;PMS5003;48237;50.140;8.486;2022-10-16T11:31:45;4;4;
62249;PMS5003;48237;50.140;8.486;2022-10-16T11:34:19;6;6;
62249;PMS5003;48237;50.140;8.486;2022-10-16T11:36:54;5;5;
62249;PMS5003;48237;50.140;8.486;2022-10-16T11:39:25;7;5;
62249;PMS5003;48237;50.140;8.486;2022-10-16T11:41:55;6;6;
62249;PMS5003;48237;50.140;8.486;2022-10-16T11:44:33;4;4;
62249;PMS5003;48237;50.140;8.486;2022-10-16T11:47:15;7;7;
62249;PMS5003;48237;50.140;8.486;2022-10-16T11:49:52;10;7;
62249;PMS5003;48237;50.140;8.486;2022-10-16T11:52:25;9;6;
62249;PMS5003;48237;50.140;8.486;2022-10-16T11:55:03;7;7;
62249;PMS5003;48237;50.140;8.486;2022-10-16T11:57:42;9;9;
62249;PMS5003;48237;50.140;8.486;2022-10-16T12:00:16;7;6;
62249;PMS5003;48237;50.140;8.486;2022-10-16T12:02:52;6;4;
62249;PMS5003;48237;50.140;8.486;2022-10-16T12:05:29;8;8;
62249;PMS5003;48237;50.140;8.486;2022-10-16T12:08:08;9;6;
62249;PMS5003;48237;50.140;8.486;2022-10-16T12:10:40;8;6;
62249;PMS5003;48237;50.140;8.486;2022-10-16T12:13:40;7;7;
62249;PMS5003;48237;50.140;8.486;2022-10-16T12:16:25;9;9;
62249;PMS5003;48237;50.140;8.486;2022-10-16T12:19:02;10;7;
62249;PMS5003;48237;50.140;8.486;2022-10-16T12:21:37;6;6;
62249;PMS5003;48237;50.140;8.486;2022-10-16T12:24:05;6;6;
62249;PMS5003;48237;50.140;8.486;2022-10-16T12:26:33;7;7;
62249;PMS5003;48237;50.140;8.486;2022-10-16T12:29:13;9;7;
62249;PMS5003;48237;50.140;8.486;2022-10-16T12:31:48;8;8;
62249;PMS5003;48237;50.140;8.486;2022-10-16T12:34:20;6;6;
62249;PMS5003;48237;50.140;8.486;2022-10-16T12:36:50;5;5;
62249;PMS5003;48237;50.140;8.486;2022-10-16T12:39:20;7;5;
62249;PMS5003;48237;50.140;8.486;2022-10-16T12:41:59;6;5;
62249;PMS5003;48237;50.140;8.486;2022-10-16T12:44:32;7;6;
62249;PMS5003;48237;50.140;8.486;2022-10-16T12:47:01;5;5;
62249;PMS5003;48237;50.140;8.486;2022-10-16T12:49:29;5;5;
62249;PMS5003;48237;50.140;8.486;2022-10-16T12:51:58;5;4;
62249;PMS5003;48237;50.140;8.486;2022-10-16T12:54:27;6;6;
62249;PMS5003;48237;50.140;8.486;2022-10-16T12:57:02;5;5;
62249;PMS5003;48237;50.140;8.486;2022-10-16T12:59:39;5;4;
62249;PMS5003;48237;50.140;8.486;2022-10-16T13:04:41;4;3;
62249;PMS5003;48237;50.140;8.486;2022-10-16T13:07:23;7;4;
62249;PMS5003;48237;50.140;8.486;2022-10-16T13:10:04;4;4;
62249;PMS5003;48237;50.140;8.486;2022-10-16T13:12:45;4;4;
62249;PMS5003;48237;50.140;8.486;2022-10-16T13:15:25;3;3;
62249;PMS5003;48237;50.140;8.486;2022-10-16T13:18:05;7;6;
62249;PMS5003;48237;50.140;8.486;2022-10-16T13:20:42;6;4;
62249;PMS5003;48237;50.140;8.486;2022-10-16T13:23:22;6;4;
62249;PMS5003;48237;50.140;8.486;2022-10-16T13:25:57;4;4;
62249;PMS5003;48237;50.140;8.486;2022-10-16T13:28:35;3;3;
62249;PMS5003;48237;50.140;8.486;2022-10-16T13:31:04;4;4;
62249;PMS5003;48237;50.140;8.486;2022-10-16T13:33:39;5;3;
62249;PMS5003;48237;50.140;8.486;2022-10-16T13:36:17;3;3;
62249;PMS5003;48237;50.140;8.486;2022-10-16T13:38:46;4;4;
62249;PMS5003;48237;50.140;8.486;2022-10-16T13:41:14;4;3;
62249;PMS5003;48237;50.140;8.486;2022-10-16T13:43:43;6;5;
62249;PMS5003;48237;50.140;8.486;2022-10-16T13:46:13;4;3;
62249;PMS5003;48237;50.140;8.486;2022-10-16T13:48:42;5;5;
62249;PMS5003;48237;50.140;8.486;2022-10-16T13:51:12;4;4;
62249;PMS5003;48237;50.140;8.486;2022-10-16T13:53:41;5;5;
62249;PMS5003;48237;50.140;8.486;2022-10-16T13:56:11;4;4;
62249;PMS5003;48237;50.140;8.486;2022-10-16T13:58:39;4;3;
62249;PMS5003;48237;50.140;8.486;2022-10-16T14:01:14;7;4;
62249;PMS5003;48237;50.140;8.486;2022-10-16T14:03:44;4;4;
62249;PMS5003;48237;50.140;8.486;2022-10-16T14:06:13;4;3;
62249;PMS5003;48237;50.140;8.486;2022-10-16T14:08:42;3;3;
62249;PMS5003;48237;50.140;8.486;2022-10-16T14:11:19;3;3;
62249;PMS5003;48237;50.140;8.486;2022-10-16T14:13:48;4;4;
62249;PMS5003;48237;50.140;8.486;2022-10-16T14:16:18;4;4;
62249;PMS5003;48237;50.140;8.486;2022-10-16T14:18:49;4;3;
62249;PMS5003;48237;50.140;8.486;2022-10-16T14:21:31;2;2;
62249;PMS5003;48237;50.140;8.486;2022-10-16T14:23:59;2;2;
62249;PMS5003;48237;50.140;8.486;2022-10-16T14:26:40;4;4;
62249;PMS5003;48237;50.140;8.486;2022-10-16T14:29:11;3;3;
62249;PMS5003;48237;50.140;8.486;2022-10-16T14:31:39;4;3;
62249;PMS5003;48237;50.140;8.486;2022-10-16T14:34:24;4;4;
62249;PMS5003;48237;50.140;8.486;2022-10-16T14:36:53;4;4;
62249;PMS5003;48237;50.140;8.486;2022-10-16T14:39:21;3;3;
62249;PMS5003;48237;50.140;8.486;2022-10-16T14:41:51;4;3;
62249;PMS5003;48237;50.140;8.486;2022-10-16T14:44:23;3;3;
62249;PMS5003;48237;50.140;8.486;2022-10-16T14:46:55;4;3;
62249;PMS5003;48237;50.140;8.486;2022-10-16T14:49:23;5;4;
62249;PMS5003;48237;50.140;8.486;2022-10-16T14:51:51;5;4;
62249;PMS5003;48237;50.140;8.486;2022-10-16T14:54:18;4;2;
62249;PMS5003;48237;50.140;8.486;2022-10-16T14:56:47;4;4;
62249;PMS5003;48237;50.140;8.486;2022-10-16T14:59:18;6;4;
62249;PMS5003;48237;50.140;8.486;2022-10-16T15:01:50;4;4;
62249;PMS5003;48237;50.140;8.486;2022-10-16T15:04:17;3;3;
62249;PMS5003;48237;50.140;8.486;2022-10-16T15:06:44;3;3;
62249;PMS5003;48237;50.140;8.486;2022-10-16T15:09:11;6;4;
62249;PMS5003;48237;50.140;8.486;2022-10-16T15:11:37;5;5;
62249;PMS5003;48237;50.140;8.486;2022-10-16T15:14:05;5;5;
62249;PMS5003;48237;50.140;8.486;2022-10-16T15:16:32;6;4;
62249;PMS5003;48237;50.140;8.486;2022-10-16T15:19:00;6;4;
62249;PMS5003;48237;50.140;8.486;2022-10-16T15:21:27;4;4;
62249;PMS5003;48237;50.140;8.486;2022-10-16T15:23:56;5;4;
62249;PMS5003;48237;50.140;8.486;2022-10-16T15:26:24;12;10;
62249;PMS5003;48237;50.140;8.486;2022-10-16T15:28:52;41;35;
62249;PMS5003;48237;50.140;8.486;2022-10-16T15:31:20;15;15;
62249;PMS5003;48237;50.140;8.486;2022-10-16T15:33:49;6;6;
62249;PMS5003;48237;50.140;8.486;2022-10-16T15:36:16;7;7;
62249;PMS5003;48237;50.140;8.486;2022-10-16T15:38:44;13;8;
62249;PMS5003;48237;50.140;8.486;2022-10-16T15:41:10;6;5;
62249;PMS5003;48237;50.140;8.486;2022-10-16T15:43:37;7;7;
62249;PMS5003;48237;50.140;8.486;2022-10-16T15:46:05;9;8;
62249;PMS5003;48237;50.140;8.486;2022-10-16T15:48:36;5;5;
62249;PMS5003;48237;50.140;8.486;2022-10-16T15:51:04;4;4;
62249;PMS5003;48237;50.140;8.486;2022-10-16T15:53:32;5;5;
62249;PMS5003;48237;50.140;8.486;2022-10-16T15:56:01;5;4;
62249;PMS5003;48237;50.140;8.486;2022-10-16T15:58:28;12;7;
62249;PMS5003;48237;50.140;8.486;2022-10-16T16:00:56;4;4;
62249;PMS5003;48237;50.140;8.486;2022-10-16T16:03:24;4;4;
62249;PMS5003;48237;50.140;8.486;2022-10-16T16:05:51;8;5;
62249;PMS5003;48237;50.140;8.486;2022-10-16T16:08:19;7;5;
62249;PMS5003;48237;50.140;8.486;2022-10-16T16:10:56;4;4;
62249;PMS5003;48237;50.140;8.486;2022-10-16T16:13:24;6;6;
62249;PMS5003;48237;50.140;8.486;2022-10-16T16:15:52;8;7;
62249;PMS5003;48237;50.140;8.486;2022-10-16T16:18:20;8;8;
62249;PMS5003;48237;50.140;8.486;2022-10-16T16:20:47;5;5;
62249;PMS5003;48237;50.140;8.486;2022-10-16T16:23:14;6;6;
62249;PMS5003;48237;50.140;8.486;2022-10-16T16:25:41;5;5;
62249;PMS5003;48237;50.140;8.486;2022-10-16T16:28:09;7;6;
62249;PMS5003;48237;50.140;8.486;2022-10-16T16:30:35;8;6;
62249;PMS5003;48237;50.140;8.486;2022-10-16T16:33:03;7;6;
62249;PMS5003;48237;50.140;8.486;2022-10-16T16:35:30;5;4;
62249;PMS5003;48237;50.140;8.486;2022-10-16T16:37:57;6;6;
62249;PMS5003;48237;50.140;8.486;2022-10-16T16:40:23;9;5;
62249;PMS5003;48237;50.140;8.486;2022-10-16T16:42:50;7;6;
62249;PMS5003;48237;50.140;8.486;2022-10-16T16:45:17;7;7;
62249;PMS5003;48237;50.140;8.486;2022-10-16T16:47:44;14;14;
62249;PMS5003;48237;50.140;8.486;2022-10-16T16:50:11;14;11;
62249;PMS5003;48237;50.140;8.486;2022-10-16T16:52:37;14;12;
62249;PMS5003;48237;50.140;8.486;2022-10-16T16:55:04;18;15;
62249;PMS5003;48237;50.140;8.486;2022-10-16T16:57:32;13;11;
62249;PMS5003;48237;50.140;8.486;2022-10-16T16:59:58;12;11;
62249;PMS5003;48237;50.140;8.486;2022-10-16T17:02:25;13;12;
62249;PMS5003;48237;50.140;8.486;2022-10-16T17:04:52;14;11;
62249;PMS5003;48237;50.140;8.486;2022-10-16T17:07:19;10;10;